createdAt,value
2023-01-09T00:01:24.349Z,2.78
2023-01-09T00:04:12.934Z,3.95
2023-01-09T00:06:58.797Z,6.82
2023-01-09T00:09:47.099Z,7.43
2023-01-09T00:12:32.738Z,4.53
2023-01-09T00:15:18.658Z,9.23
2023-01-09T00:18:04.143Z,3.65
2023-01-09T00:20:49.527Z,5.90
2023-01-09T00:23:35.580Z,8.10
2023-01-09T00:26:21.961Z,5.20
2023-01-09T00:29:09.972Z,6.85
2023-01-09T00:31:55.375Z,7.43
2023-01-09T00:34:43.120Z,9.38
2023-01-09T00:37:28.672Z,7.57
2023-01-09T00:40:15.547Z,9.10
2023-01-09T00:43:01.151Z,9.82
2023-01-09T00:45:46.506Z,7.10
2023-01-09T00:48:33.701Z,11.32
2023-01-09T00:51:24.590Z,8.20
2023-01-09T00:54:17.501Z,7.18
2023-01-09T00:57:03.156Z,6.72
2023-01-09T00:59:48.767Z,6.18
2023-01-09T01:02:34.260Z,9.73
2023-01-09T01:05:37.862Z,9.30
2023-01-09T01:08:26.332Z,8.38
2023-01-09T01:11:13.179Z,6.88
2023-01-09T01:14:00.302Z,9.13
2023-01-09T01:16:48.047Z,6.28
2023-01-09T01:19:38.253Z,10.50
2023-01-09T01:22:27.158Z,9.93
2023-01-09T01:25:17.207Z,7.20
2023-01-09T01:28:02.825Z,6.57
2023-01-09T01:30:53.721Z,9.45
2023-01-09T01:33:41.597Z,9.93
2023-01-09T01:36:29.875Z,5.88
2023-01-09T01:39:16.748Z,9.85
2023-01-09T01:42:04.183Z,10.27
2023-01-09T01:45:02.901Z,10.65
2023-01-09T01:48:03.629Z,12.68
2023-01-09T01:50:55.741Z,8.40
2023-01-09T01:53:55.759Z,5.80
2023-01-09T01:56:51.164Z,11.35
2023-01-09T02:02:29.079Z,9.43
2023-01-09T02:05:14.892Z,8.13
2023-01-09T02:08:00.266Z,10.70
2023-01-09T02:10:46.643Z,8.02
2023-01-09T02:13:34.310Z,13.18
2023-01-09T02:16:30.656Z,18.55
2023-01-09T02:19:18.910Z,9.40
2023-01-09T02:22:12.859Z,18.08
2023-01-09T02:25:16.856Z,7.75
2023-01-09T02:28:05.229Z,14.57
2023-01-09T02:31:15.432Z,17.95
2023-01-09T02:34:06.608Z,14.32
2023-01-09T02:37:17.627Z,12.32
2023-01-09T02:40:36.751Z,11.38
2023-01-09T02:43:23.664Z,13.23
2023-01-09T02:46:21.353Z,12.98
2023-01-09T02:49:07.467Z,15.38
2023-01-09T02:51:56.893Z,13.32
2023-01-09T02:54:49.781Z,11.20
2023-01-09T02:57:43.423Z,14.85
2023-01-09T03:00:41.749Z,15.65
2023-01-09T03:03:50.364Z,13.25
2023-01-09T03:07:03.498Z,8.20
2023-01-09T03:09:54.732Z,11.55
2023-01-09T03:12:49.260Z,13.35
2023-01-09T03:15:38.236Z,8.02
2023-01-09T03:18:27.138Z,9.00
2023-01-09T03:21:13.257Z,9.95
2023-01-09T03:24:03.482Z,10.23
2023-01-09T03:26:52.585Z,14.25
2023-01-09T03:29:39.293Z,12.05
2023-01-09T03:32:24.531Z,8.77
2023-01-09T03:35:10.229Z,6.47
2023-01-09T03:37:55.559Z,11.00
2023-01-09T03:40:43.401Z,19.77
2023-01-09T03:43:28.780Z,21.73
2023-01-09T03:46:15.907Z,20.63
2023-01-09T03:49:01.254Z,14.00
2023-01-09T03:51:48.815Z,19.52
2023-01-09T03:54:35.325Z,18.20
2023-01-09T03:57:20.624Z,18.55
2023-01-09T04:00:10.276Z,16.48
2023-01-09T04:02:58.742Z,13.85
2023-01-09T04:05:45.909Z,10.35
2023-01-09T04:08:37.183Z,14.00
2023-01-09T04:11:23.479Z,17.90
2023-01-09T04:14:08.608Z,11.73
2023-01-09T04:16:54.172Z,11.13
2023-01-09T04:19:39.670Z,12.68
2023-01-09T04:22:25.484Z,15.23
2023-01-09T04:25:13.110Z,13.93
2023-01-09T04:27:58.850Z,10.68
2023-01-09T04:30:44.633Z,12.95
2023-01-09T04:33:30.320Z,14.70
2023-01-09T04:36:18.498Z,15.13
2023-01-09T04:39:12.953Z,16.83
2023-01-09T04:41:58.280Z,14.80
2023-01-09T04:44:46.487Z,15.27
2023-01-09T04:47:32.987Z,15.38
2023-01-09T04:50:18.521Z,12.15
2023-01-09T04:53:04.321Z,11.10
2023-01-09T04:55:49.693Z,9.48
2023-01-09T04:58:35.006Z,13.18
2023-01-09T05:01:20.607Z,8.63
2023-01-09T05:04:06.878Z,11.98
2023-01-09T05:06:56.998Z,11.07
2023-01-09T05:09:44.864Z,8.57
2023-01-09T05:12:30.694Z,11.82
2023-01-09T05:15:16.546Z,13.85
2023-01-09T05:18:02.091Z,16.75
2023-01-09T05:20:48.149Z,12.45
2023-01-09T05:23:33.716Z,14.82
2023-01-09T05:26:25.939Z,8.75
2023-01-09T05:29:11.687Z,12.35
2023-01-09T05:31:57.454Z,9.48
2023-01-09T05:34:45.516Z,12.30
2023-01-09T05:37:31.118Z,10.70
2023-01-09T05:40:16.817Z,13.43
2023-01-09T05:43:02.577Z,16.55
2023-01-09T05:45:48.016Z,16.05
2023-01-09T05:48:33.435Z,11.85
2023-01-09T05:51:19.071Z,8.63
2023-01-09T05:54:05.676Z,9.35
2023-01-09T05:56:51.371Z,11.70
2023-01-09T05:59:36.824Z,13.40
2023-01-09T06:02:22.540Z,11.70
2023-01-09T06:05:11.765Z,10.95
2023-01-09T06:08:00.124Z,11.98
2023-01-09T06:10:47.087Z,11.63
2023-01-09T06:13:32.743Z,11.05
2023-01-09T06:16:18.812Z,10.25
2023-01-09T06:19:05.789Z,10.88
2023-01-09T06:21:53.760Z,12.15
2023-01-09T06:24:39.840Z,10.65
2023-01-09T06:27:25.777Z,11.60
2023-01-09T06:30:12.296Z,19.63
2023-01-09T06:32:57.730Z,16.73
2023-01-09T06:35:46.107Z,13.70
2023-01-09T06:38:34.756Z,15.73
2023-01-09T06:41:20.747Z,15.63
2023-01-09T06:44:08.520Z,14.52
2023-01-09T06:46:55.991Z,12.18
2023-01-09T06:49:44.477Z,11.10
2023-01-09T06:52:39.933Z,12.57
2023-01-09T06:55:26.397Z,10.63
2023-01-09T06:58:11.987Z,11.52
2023-01-09T07:00:59.350Z,7.75
2023-01-09T07:03:45.954Z,7.07
2023-01-09T07:06:31.337Z,11.68
2023-01-09T07:09:16.811Z,11.13
2023-01-09T07:12:06.124Z,10.63
2023-01-09T07:14:51.448Z,13.75
2023-01-09T07:17:37.273Z,15.02
2023-01-09T07:20:23.471Z,12.73
2023-01-09T07:23:13.041Z,12.48
2023-01-09T07:26:00.127Z,10.27
2023-01-09T07:28:45.295Z,8.48
2023-01-09T07:31:34.563Z,10.07
2023-01-09T07:34:20.052Z,7.35
2023-01-09T07:37:05.718Z,8.55
2023-01-09T07:39:54.440Z,8.55
2023-01-09T07:42:39.877Z,15.52
2023-01-09T07:45:25.346Z,9.45
2023-01-09T07:48:16.768Z,9.43
2023-01-09T07:51:02.463Z,8.40
2023-01-09T07:53:48.097Z,8.95
2023-01-09T07:56:33.292Z,7.60
2023-01-09T07:59:19.123Z,10.27
2023-01-09T08:02:07.874Z,5.45
2023-01-09T08:04:56.418Z,10.52
2023-01-09T08:07:42.053Z,11.27
2023-01-09T08:10:27.793Z,6.57
2023-01-09T08:13:15.881Z,10.38
2023-01-09T08:16:02.566Z,9.75
2023-01-09T08:18:51.207Z,9.15
2023-01-09T08:21:39.961Z,6.55
2023-01-09T08:24:25.515Z,9.60
2023-01-09T08:27:11.018Z,10.38
2023-01-09T08:29:56.375Z,9.68
2023-01-09T08:32:41.688Z,8.27
2023-01-09T08:35:33.212Z,13.93
2023-01-09T08:38:22.380Z,10.05
2023-01-09T08:41:28.931Z,8.90
2023-01-09T08:44:32.832Z,14.65
2023-01-09T08:47:22.056Z,23.75
2023-01-09T08:50:07.848Z,15.57
2023-01-09T08:52:53.540Z,20.63
2023-01-09T08:55:39.301Z,25.77
2023-01-09T08:58:28.093Z,22.95
2023-01-09T09:01:13.595Z,21.45
2023-01-09T09:03:59.087Z,21.65
2023-01-09T09:06:44.642Z,19.08
2023-01-09T09:09:30.206Z,23.77
2023-01-09T09:12:15.345Z,24.77
2023-01-09T09:15:16.791Z,25.63
2023-01-09T09:18:04.430Z,18.25
2023-01-09T09:20:53.666Z,18.55
2023-01-09T09:23:39.362Z,23.00
2023-01-09T09:26:27.935Z,16.58
2023-01-09T09:29:13.384Z,22.63
2023-01-09T09:32:01.486Z,21.15
2023-01-09T09:34:46.832Z,16.52
2023-01-09T09:37:35.192Z,17.85
2023-01-09T09:40:29.804Z,19.75
2023-01-09T09:43:52.733Z,17.00
2023-01-09T09:46:50.526Z,12.75
2023-01-09T09:50:00.323Z,11.10
2023-01-09T09:52:52.877Z,24.00
2023-01-09T09:55:40.588Z,24.50
2023-01-09T09:59:06.912Z,17.08
2023-01-09T10:02:04.699Z,18.83
2023-01-09T10:04:57.007Z,15.30
2023-01-09T10:07:49.656Z,16.90
2023-01-09T10:10:41.104Z,19.52
2023-01-09T10:13:45.414Z,8.45
2023-01-09T10:16:46.123Z,8.18
2023-01-09T10:20:01.022Z,12.27
2023-01-09T10:23:08.206Z,12.55
2023-01-09T10:26:08.969Z,13.15
2023-01-09T10:28:54.635Z,15.27
2023-01-09T10:32:19.329Z,13.10
2023-01-09T10:35:48.108Z,21.00
2023-01-09T10:38:39.009Z,10.95
2023-01-09T10:41:31.647Z,16.42
2023-01-09T10:44:24.277Z,15.82
2023-01-09T10:47:17.360Z,17.67
2023-01-09T10:50:19.809Z,12.88
2023-01-09T10:53:21.573Z,17.95
2023-01-09T10:56:27.131Z,18.25
2023-01-09T11:02:00.825Z,9.48
2023-01-09T11:04:46.252Z,18.30
2023-01-09T11:07:42.019Z,23.73
2023-01-09T11:10:45.109Z,21.05
2023-01-09T11:13:35.327Z,15.00
2023-01-09T11:16:22.271Z,12.45
2023-01-09T11:19:17.560Z,27.55
2023-01-09T11:22:08.993Z,17.58
2023-01-09T11:25:02.937Z,22.20
2023-01-09T11:28:07.204Z,17.20
2023-01-09T11:31:03.628Z,15.40
2023-01-09T11:33:50.212Z,16.60
2023-01-09T11:36:38.506Z,20.20
2023-01-09T11:39:30.577Z,13.25
2023-01-09T11:42:43.462Z,15.73
2023-01-09T11:45:35.223Z,14.40
2023-01-09T11:48:59.325Z,21.35
2023-01-09T11:51:45.182Z,18.50
2023-01-09T11:54:34.359Z,22.65
2023-01-09T11:57:22.744Z,16.65
2023-01-09T12:01:00.804Z,14.70
2023-01-09T12:04:24.927Z,16.65
2023-01-09T12:07:39.352Z,11.30
2023-01-09T12:10:38.540Z,18.67
2023-01-09T12:13:38.866Z,13.65
2023-01-09T12:16:48.756Z,25.35
2023-01-09T12:20:00.236Z,14.52
2023-01-09T12:23:13.806Z,15.13
2023-01-09T12:26:29.775Z,14.98
2023-01-09T12:32:46.123Z,17.73
2023-01-09T12:35:55.054Z,18.05
2023-01-09T12:39:19.040Z,16.38
2023-01-09T12:42:16.595Z,20.63
2023-01-09T12:45:24.794Z,15.15
2023-01-09T12:48:41.266Z,17.30
2023-01-09T12:52:01.109Z,16.85
2023-01-09T12:54:53.608Z,18.77
2023-01-09T12:57:44.647Z,20.52
2023-01-09T13:00:42.040Z,20.92
2023-01-09T13:03:41.999Z,13.75
2023-01-09T13:06:29.713Z,19.17
2023-01-09T13:09:22.005Z,19.73
2023-01-09T13:12:21.852Z,13.82
2023-01-09T13:15:18.989Z,17.95
2023-01-09T13:18:16.261Z,17.42
2023-01-09T13:21:03.286Z,21.33
2023-01-09T13:24:07.021Z,19.52
2023-01-09T13:26:55.543Z,19.77
2023-01-09T13:29:49.538Z,16.38
2023-01-09T13:32:54.535Z,19.70
2023-01-09T13:36:03.289Z,32.13
2023-01-09T13:38:52.653Z,14.63
2023-01-09T13:42:06.556Z,19.67
2023-01-09T13:44:55.636Z,16.33
2023-01-09T13:47:45.006Z,23.58
2023-01-09T13:50:33.482Z,19.95
2023-01-09T13:53:27.530Z,20.73
2023-01-09T13:56:14.464Z,18.67
2023-01-09T13:59:02.867Z,17.45
2023-01-09T14:01:52.608Z,20.17
2023-01-09T14:04:43.750Z,22.00
2023-01-09T14:07:34.091Z,24.00
2023-01-09T14:10:25.074Z,19.92
2023-01-09T14:13:26.127Z,21.10
2023-01-09T14:16:14.404Z,25.80
2023-01-09T14:19:14.522Z,18.25
2023-01-09T14:22:00.756Z,21.23
2023-01-09T14:25:24.076Z,16.70
2023-01-09T14:28:24.462Z,22.80
2023-01-09T14:31:26.414Z,22.80
2023-01-09T14:34:37.399Z,22.40
2023-01-09T14:37:23.689Z,18.95
2023-01-09T14:40:26.071Z,25.10
2023-01-09T14:43:25.106Z,20.05
2023-01-09T14:46:18.265Z,21.75
2023-01-09T14:49:12.446Z,21.88
2023-01-09T14:52:03.054Z,20.40
2023-01-09T14:54:50.665Z,14.15
2023-01-09T14:57:36.285Z,19.33
2023-01-09T15:00:23.013Z,20.90
2023-01-09T15:03:10.861Z,14.57
2023-01-09T15:05:56.787Z,19.80
2023-01-09T15:08:46.147Z,21.25
2023-01-09T15:11:33.286Z,26.10
2023-01-09T15:14:39.884Z,15.23
2023-01-09T15:17:38.889Z,20.35
2023-01-09T15:20:28.799Z,18.65
2023-01-09T15:23:25.987Z,22.35
2023-01-09T15:26:23.178Z,20.30
2023-01-09T15:29:17.618Z,19.23
2023-01-09T15:32:09.861Z,22.03
2023-01-09T15:34:58.508Z,16.25
2023-01-09T15:37:47.224Z,17.80
2023-01-09T15:40:34.540Z,19.40
2023-01-09T15:43:19.894Z,15.00
2023-01-09T15:46:05.952Z,22.58
2023-01-09T15:48:54.534Z,14.27
2023-01-09T15:51:45.071Z,13.02
2023-01-09T15:54:35.285Z,9.95
2023-01-09T15:57:34.289Z,15.88
2023-01-09T16:00:41.401Z,13.05
2023-01-09T16:03:30.866Z,21.65
2023-01-09T16:06:47.767Z,18.38
2023-01-09T16:09:33.312Z,15.98
2023-01-09T16:12:22.229Z,21.85
2023-01-09T16:15:15.903Z,15.15
2023-01-09T16:18:20.984Z,8.63
2023-01-09T16:21:40.665Z,11.20
2023-01-09T16:27:34.198Z,5.95
2023-01-09T16:30:29.713Z,6.32
2023-01-09T16:33:22.474Z,10.85
2023-01-09T16:36:10.255Z,8.63
2023-01-09T16:38:56.742Z,8.85
2023-01-09T16:42:01.878Z,18.85
2023-01-09T16:44:47.418Z,17.67
2023-01-09T16:47:33.237Z,24.52
2023-01-09T16:50:18.918Z,24.65
2023-01-09T16:53:21.905Z,12.32
2023-01-09T16:56:19.979Z,10.18
2023-01-09T16:59:05.239Z,11.05
2023-01-09T17:01:52.086Z,16.98
2023-01-09T17:04:39.630Z,14.05
2023-01-09T17:07:25.669Z,12.70
2023-01-09T17:10:20.280Z,15.70
2023-01-09T17:13:06.680Z,23.73
2023-01-09T17:15:53.622Z,10.98
2023-01-09T17:18:42.999Z,13.13
2023-01-09T17:21:29.410Z,14.57
2023-01-09T17:24:34.159Z,11.80
2023-01-09T17:27:52.599Z,13.80
2023-01-09T17:30:38.166Z,13.00
2023-01-09T17:33:29.912Z,9.25
2023-01-09T17:36:25.165Z,10.98
2023-01-09T17:39:14.716Z,16.45
2023-01-09T17:42:01.838Z,12.45
2023-01-09T17:45:11.702Z,14.40
2023-01-09T17:47:57.021Z,12.68
2023-01-09T17:50:43.000Z,14.32
2023-01-09T17:56:33.953Z,16.30
2023-01-09T17:59:19.264Z,17.20
2023-01-09T18:02:04.438Z,18.70
2023-01-09T18:04:53.882Z,19.35
2023-01-09T18:07:39.392Z,13.07
2023-01-09T18:10:27.339Z,10.65
2023-01-09T18:13:19.433Z,18.42
2023-01-09T18:16:13.193Z,24.45
2023-01-09T18:19:02.345Z,21.25
2023-01-09T18:21:47.623Z,25.95
2023-01-09T18:24:33.211Z,27.25
2023-01-09T18:27:18.807Z,21.33
2023-01-09T18:30:09.343Z,28.77
2023-01-09T18:32:57.852Z,15.43
2023-01-09T18:35:47.713Z,28.27
2023-01-09T18:38:33.019Z,27.52
2023-01-09T18:41:18.796Z,27.45
2023-01-09T18:44:07.344Z,35.58
2023-01-09T18:46:53.004Z,27.13
2023-01-09T18:49:38.667Z,29.15
2023-01-09T18:52:27.319Z,25.90
2023-01-09T18:55:12.554Z,24.30
2023-01-09T18:57:58.293Z,21.42
2023-01-09T19:00:45.913Z,26.10
2023-01-09T19:03:34.631Z,23.10
2023-01-09T19:06:21.050Z,21.17
2023-01-09T19:09:10.265Z,21.90
2023-01-09T19:11:58.947Z,18.88
2023-01-09T19:14:44.586Z,25.23
2023-01-09T19:17:33.306Z,31.90
2023-01-09T19:20:19.207Z,16.40
2023-01-09T19:23:04.570Z,24.27
2023-01-09T19:25:50.424Z,18.17
2023-01-09T19:28:36.581Z,17.77
2023-01-09T19:31:28.365Z,17.55
2023-01-09T19:34:15.278Z,29.80
2023-01-09T19:37:00.534Z,21.58
2023-01-09T19:39:46.874Z,14.52
2023-01-09T19:42:34.976Z,23.30
2023-01-09T19:45:23.794Z,18.10
2023-01-09T19:48:09.256Z,20.17
2023-01-09T19:51:03.946Z,14.25
2023-01-09T19:53:55.077Z,28.90
2023-01-09T19:56:43.904Z,21.05
2023-01-09T19:59:29.432Z,23.00
2023-01-09T20:02:39.664Z,27.25
2023-01-09T20:05:25.056Z,24.63
2023-01-09T20:08:11.587Z,17.70
2023-01-09T20:11:01.296Z,23.48
2023-01-09T20:13:49.227Z,22.70
2023-01-09T20:16:34.911Z,32.17
2023-01-09T20:19:21.091Z,21.92
2023-01-09T20:22:06.274Z,21.33
2023-01-09T20:24:51.811Z,14.27
2023-01-09T20:27:37.232Z,18.15
2023-01-09T20:30:25.789Z,24.20
2023-01-09T20:33:11.469Z,17.70
2023-01-09T20:36:03.255Z,13.00
2023-01-09T20:38:51.895Z,23.77
2023-01-09T20:41:43.135Z,17.42
2023-01-09T20:44:28.882Z,21.65
2023-01-09T20:47:15.218Z,18.85
2023-01-09T20:50:00.675Z,19.63
2023-01-09T20:52:51.465Z,16.13
2023-01-09T20:55:36.852Z,21.38
2023-01-09T20:58:23.553Z,16.23
2023-01-09T21:01:13.274Z,21.98
2023-01-09T21:04:11.294Z,20.60
2023-01-09T21:06:57.140Z,22.90
2023-01-09T21:09:42.428Z,19.95
2023-01-09T21:12:34.580Z,20.17
2023-01-09T21:15:24.541Z,25.45
2023-01-09T21:18:09.771Z,21.85
2023-01-09T21:20:55.402Z,24.60
2023-01-09T21:23:46.153Z,16.17
2023-01-09T21:26:31.866Z,22.80
2023-01-09T21:29:17.502Z,25.67
2023-01-09T21:32:02.997Z,36.83
2023-01-09T21:34:48.318Z,28.83
2023-01-09T21:37:36.390Z,28.35
2023-01-09T21:40:21.825Z,23.00
2023-01-09T21:43:31.387Z,17.65
2023-01-09T21:46:38.213Z,22.63
2023-01-09T21:49:26.118Z,18.10
2023-01-09T21:52:14.533Z,25.65
2023-01-09T21:55:00.128Z,25.08
2023-01-09T21:57:45.782Z,30.10
2023-01-09T22:00:33.195Z,20.83
2023-01-09T22:03:21.149Z,21.25
2023-01-09T22:06:09.995Z,23.58
2023-01-09T22:08:56.400Z,29.17
2023-01-09T22:11:43.304Z,24.10
2023-01-09T22:14:31.103Z,19.15
2023-01-09T22:17:19.143Z,21.63
2023-01-09T22:20:05.390Z,25.02
2023-01-09T22:22:50.620Z,23.58
2023-01-09T22:25:37.918Z,26.90
2023-01-09T22:28:26.723Z,19.20
2023-01-09T22:31:16.039Z,16.98
2023-01-09T22:34:05.155Z,26.55
2023-01-09T22:36:50.400Z,16.20
2023-01-09T22:39:37.301Z,16.67
2023-01-09T22:42:22.653Z,17.90
2023-01-09T22:45:08.645Z,27.30
2023-01-09T22:47:54.017Z,18.30
2023-01-09T22:50:39.798Z,20.20
2023-01-09T22:53:28.810Z,18.05
2023-01-09T22:56:20.445Z,26.20
2023-01-09T22:59:08.832Z,28.10
2023-01-09T23:01:56.875Z,33.30
2023-01-09T23:04:42.410Z,25.63
2023-01-09T23:07:27.998Z,24.15
2023-01-09T23:10:13.612Z,21.30
2023-01-09T23:13:00.216Z,36.83
2023-01-09T23:15:45.679Z,20.60
2023-01-09T23:18:34.257Z,16.95
2023-01-09T23:21:19.894Z,18.35
2023-01-09T23:24:07.158Z,27.50
2023-01-09T23:26:53.314Z,15.32
2023-01-09T23:29:40.115Z,28.73
2023-01-09T23:32:25.604Z,23.50
2023-01-09T23:35:11.591Z,15.82
2023-01-09T23:38:02.892Z,17.58
2023-01-09T23:40:55.575Z,17.65
2023-01-09T23:43:45.595Z,27.35
2023-01-09T23:46:30.993Z,30.23
2023-01-09T23:49:16.928Z,27.08
2023-01-09T23:52:06.056Z,18.10
2023-01-09T23:54:51.780Z,26.48
2023-01-09T23:57:40.667Z,23.70
